Time;durP1;ratioP1;P1;durP2;ratioP2;P2;SDS_P1;SDS_P2;PMS_P1;PMS_P2;Temp;Humidity;BMP_temperature;BMP_pressure;BME280_temperature;BME280_humidity;BME280_pressure;Samples;Min_cycle;Max_cycle;Signal;HPM_P1;HPM_P2
2022/05/06 00:01:07;;;;;;;26.23;20.02;;;11.90;99.90;;;;;;5108666;28;20092;-74
2022/05/06 00:03:32;;;;;;;27.90;20.63;;;11.90;99.90;;;;;;5093871;28;20470;-75
2022/05/06 00:05:58;;;;;;;29.40;22.08;;;11.80;99.90;;;;;;5093245;28;20046;-71
2022/05/06 00:08:25;;;;;;;25.50;21.00;;;11.70;99.90;;;;;;5096630;28;20086;-73
2022/05/06 00:10:51;;;;;;;28.77;21.53;;;11.70;99.90;;;;;;5087875;28;20479;-72
2022/05/06 00:13:16;;;;;;;26.60;20.58;;;11.60;99.90;;;;;;5087022;28;20044;-73
2022/05/06 00:15:42;;;;;;;24.17;19.85;;;11.50;99.90;;;;;;5084508;28;20052;-75
2022/05/06 00:18:07;;;;;;;27.80;20.50;;;11.50;99.90;;;;;;5086913;28;20074;-73
2022/05/06 00:20:33;;;;;;;28.08;21.05;;;11.40;99.90;;;;;;5094865;28;20051;-72
2022/05/06 00:23:00;;;;;;;27.38;20.73;;;11.40;99.90;;;;;;5092877;28;20105;-73
2022/05/06 00:25:26;;;;;;;26.38;19.60;;;11.30;99.90;;;;;;5097757;28;20044;-73
2022/05/06 00:27:52;;;;;;;27.02;21.42;;;11.20;99.90;;;;;;5097251;28;20093;-72
2022/05/06 00:30:18;;;;;;;27.70;21.40;;;11.20;99.90;;;;;;5094610;28;20040;-72
2022/05/06 00:32:44;;;;;;;24.90;19.70;;;11.10;99.90;;;;;;5090220;28;20052;-72
2022/05/06 00:35:10;;;;;;;27.85;21.88;;;11.00;99.90;;;;;;5098279;28;20050;-77
2022/05/06 00:37:36;;;;;;;27.27;22.15;;;10.90;99.90;;;;;;5086277;28;20036;-74
2022/05/06 00:40:02;;;;;;;28.33;22.75;;;10.80;99.90;;;;;;5088733;28;20071;-72
2022/05/06 00:42:27;;;;;;;30.42;21.90;;;10.80;99.90;;;;;;5107551;28;20048;-71
2022/05/06 00:44:53;;;;;;;26.38;21.17;;;10.80;99.90;;;;;;5100408;28;20044;-72
2022/05/06 00:47:22;;;;;;;28.00;23.10;;;10.80;99.90;;;;;;5091824;28;20055;-72
2022/05/06 00:49:52;;;;;;;28.27;21.92;;;10.80;99.90;;;;;;5091900;28;20040;-71
2022/05/06 00:52:18;;;;;;;30.27;23.85;;;10.70;99.90;;;;;;5105765;28;20039;-72
2022/05/06 00:54:44;;;;;;;28.33;21.45;;;10.70;99.90;;;;;;5103901;28;20526;-72
2022/05/06 00:57:10;;;;;;;26.90;22.63;;;10.70;99.90;;;;;;5091435;28;20391;-73
2022/05/06 01:02:20;;;;;;;27.45;22.00;;;10.60;99.90;;;;;;5089901;28;20056;-74
2022/05/06 01:04:46;;;;;;;27.95;22.65;;;10.60;99.90;;;;;;5094978;28;20490;-74
2022/05/06 01:07:13;;;;;;;28.77;22.42;;;10.60;99.90;;;;;;5092603;28;20150;-72
2022/05/06 01:09:39;;;;;;;30.27;23.80;;;10.60;99.90;;;;;;5111664;28;20052;-72
2022/05/06 01:12:06;;;;;;;28.23;22.13;;;10.50;99.90;;;;;;5110487;28;20056;-73
2022/05/06 01:14:35;;;;;;;26.75;20.65;;;10.50;99.90;;;;;;5105610;28;20036;-72
2022/05/06 01:17:01;;;;;;;31.40;22.55;;;10.50;99.90;;;;;;5109375;28;20039;-74
2022/05/06 01:19:26;;;;;;;28.88;22.50;;;10.50;99.90;;;;;;5098075;28;20475;-75
2022/05/06 01:21:53;;;;;;;28.23;22.70;;;10.50;99.90;;;;;;5112636;28;20038;-72
2022/05/06 01:24:19;;;;;;;26.70;22.27;;;10.40;99.90;;;;;;5108162;28;20040;-71
2022/05/06 01:27:06;;;;;;;28.95;22.88;;;10.40;99.90;;;;;;5105267;28;20441;-75
2022/05/06 01:29:32;;;;;;;26.60;22.20;;;10.40;99.90;;;;;;5112157;28;20036;-74
2022/05/06 01:31:59;;;;;;;27.20;22.42;;;10.40;99.90;;;;;;5091408;28;20051;-73
2022/05/06 01:34:28;;;;;;;27.13;22.25;;;10.40;99.90;;;;;;5089167;28;20123;-72
2022/05/06 01:36:57;;;;;;;27.23;22.20;;;10.40;99.90;;;;;;5090283;28;20123;-73
2022/05/06 01:39:30;;;;;;;25.52;21.45;;;10.30;99.90;;;;;;5089659;28;20043;-75
2022/05/06 01:41:58;;;;;;;27.42;22.52;;;10.30;99.90;;;;;;5087551;28;20044;-74
2022/05/06 01:44:28;;;;;;;26.80;21.85;;;10.30;99.90;;;;;;5091541;28;20412;-74
2022/05/06 01:46:55;;;;;;;29.23;22.42;;;10.30;99.90;;;;;;5109778;28;20035;-73
2022/05/06 01:49:22;;;;;;;25.35;21.77;;;10.30;99.90;;;;;;5111655;27;20402;-73
2022/05/06 01:51:48;;;;;;;28.38;21.85;;;10.20;99.90;;;;;;5110559;28;20047;-72
2022/05/06 01:54:14;;;;;;;27.73;22.40;;;10.20;99.90;;;;;;5109626;28;20441;-72
2022/05/06 01:56:41;;;;;;;28.05;21.75;;;10.10;99.90;;;;;;5101248;28;20040;-72
2022/05/06 01:59:07;;;;;;;24.45;19.20;;;10.10;99.90;;;;;;5111659;28;20044;-72
2022/05/06 02:01:34;;;;;;;21.83;18.65;;;10.10;99.90;;;;;;5106750;28;20051;-74
2022/05/06 02:06:44;;;;;;;22.58;18.55;;;9.90;99.90;;;;;;5103963;28;20515;-74
2022/05/06 02:09:10;;;;;;;25.17;21.38;;;9.80;99.90;;;;;;5111319;28;20078;-73
2022/05/06 02:11:35;;;;;;;28.83;22.52;;;9.80;99.90;;;;;;5090014;28;20039;-73
2022/05/06 02:14:02;;;;;;;26.88;23.05;;;9.80;99.90;;;;;;5102120;28;20111;-72
2022/05/06 02:16:28;;;;;;;24.10;20.80;;;9.80;99.90;;;;;;5097158;28;20046;-72
2022/05/06 02:18:54;;;;;;;24.73;20.73;;;9.90;99.90;;;;;;5109248;28;20440;-73
2022/05/06 02:21:20;;;;;;;24.83;21.40;;;9.80;99.90;;;;;;5109610;28;20100;-75
2022/05/06 02:23:46;;;;;;;24.45;20.77;;;9.80;99.90;;;;;;5109775;28;20039;-75
2022/05/06 02:26:11;;;;;;;25.23;21.67;;;9.80;99.90;;;;;;5105452;28;20047;-71
2022/05/06 02:28:37;;;;;;;24.67;21.10;;;9.70;99.90;;;;;;5098436;28;20093;-74
2022/05/06 02:33:47;;;;;;;23.38;19.25;;;9.60;99.90;;;;;;5070559;28;20553;-77
2022/05/06 02:36:12;;;;;;;24.48;19.75;;;9.60;99.90;;;;;;5080208;28;20048;-73
2022/05/06 02:38:38;;;;;;;25.08;19.08;;;9.50;99.90;;;;;;5089785;28;20681;-72
2022/05/06 02:41:04;;;;;;;24.17;19.98;;;9.50;99.90;;;;;;5097159;28;20387;-76
2022/05/06 02:43:30;;;;;;;25.58;20.05;;;9.50;99.90;;;;;;5109728;28;20054;-72
2022/05/06 02:45:55;;;;;;;24.40;19.38;;;9.30;99.90;;;;;;5097635;28;20034;-72
2022/05/06 02:48:21;;;;;;;21.17;17.48;;;9.30;99.90;;;;;;5108205;28;20087;-72
2022/05/06 02:50:47;;;;;;;23.42;17.95;;;9.30;99.90;;;;;;5108400;28;20047;-72
2022/05/06 02:53:13;;;;;;;22.98;18.55;;;9.30;99.90;;;;;;5110680;28;20406;-73
2022/05/06 02:55:39;;;;;;;24.92;18.73;;;9.30;99.90;;;;;;5101419;28;20044;-74
2022/05/06 02:58:06;;;;;;;24.30;19.27;;;9.30;99.90;;;;;;5096622;28;20036;-72
2022/05/06 03:00:31;;;;;;;24.55;17.65;;;9.30;99.90;;;;;;5068379;28;20053;-74
2022/05/06 03:02:57;;;;;;;21.13;18.70;;;9.20;99.90;;;;;;5069256;28;20040;-73
2022/05/06 03:05:24;;;;;;;22.20;18.40;;;9.20;99.90;;;;;;5073370;28;20403;-71
2022/05/06 03:07:51;;;;;;;25.10;19.00;;;9.20;99.90;;;;;;5090228;28;20048;-75
2022/05/06 03:10:17;;;;;;;25.47;21.60;;;9.20;99.90;;;;;;5086160;28;20052;-72
2022/05/06 03:12:43;;;;;;;27.85;20.42;;;9.20;99.90;;;;;;5089854;28;20182;-73
2022/05/06 03:15:10;;;;;;;25.77;21.63;;;9.20;99.90;;;;;;5089152;28;20050;-76
2022/05/06 03:17:36;;;;;;;27.75;22.38;;;9.20;99.90;;;;;;5093969;28;20059;-74
2022/05/06 03:20:08;;;;;;;25.67;22.15;;;9.20;99.90;;;;;;5101993;28;20091;-75
2022/05/06 03:22:47;;;;;;;25.67;22.52;;;9.20;99.90;;;;;;5108810;28;20051;-72
2022/05/06 03:25:14;;;;;;;24.33;20.15;;;9.10;99.90;;;;;;5101038;28;20368;-73
2022/05/06 03:30:24;;;;;;;24.88;21.25;;;9.10;99.90;;;;;;5097959;28;20048;-74
2022/05/06 03:32:51;;;;;;;24.40;21.40;;;9.10;99.90;;;;;;5107022;28;20099;-73
2022/05/06 03:35:17;;;;;;;28.75;21.33;;;9.10;99.90;;;;;;5104519;28;20059;-72
2022/05/06 03:37:44;;;;;;;31.45;23.75;;;9.00;99.90;;;;;;5087320;28;20414;-72
2022/05/06 03:40:11;;;;;;;29.15;23.08;;;9.00;99.90;;;;;;5068205;28;20032;-74
2022/05/06 03:42:37;;;;;;;26.85;22.20;;;9.00;99.90;;;;;;5090478;28;20043;-74
2022/05/06 03:45:03;;;;;;;32.78;23.75;;;9.00;99.90;;;;;;5087226;28;20486;-72
2022/05/06 03:47:29;;;;;;;27.70;23.02;;;8.90;99.90;;;;;;5106473;28;20074;-73
2022/05/06 03:52:39;;;;;;;28.08;23.00;;;8.90;99.90;;;;;;5087774;28;20059;-74
2022/05/06 03:55:06;;;;;;;26.65;22.17;;;8.90;99.90;;;;;;5091992;28;20043;-73
2022/05/06 03:57:31;;;;;;;24.95;20.60;;;8.90;99.90;;;;;;5089482;28;20119;-71
2022/05/06 03:59:57;;;;;;;24.00;20.75;;;8.90;99.90;;;;;;5088091;28;20539;-73
2022/05/06 04:02:22;;;;;;;24.65;19.67;;;8.90;99.90;;;;;;5091041;28;20040;-72
2022/05/06 04:04:48;;;;;;;22.83;20.23;;;8.90;99.90;;;;;;5092668;28;20164;-73
2022/05/06 04:07:14;;;;;;;24.60;21.20;;;8.90;99.90;;;;;;5090939;28;20036;-72
2022/05/06 04:09:41;;;;;;;25.70;21.33;;;8.90;99.90;;;;;;5090637;28;20036;-74
2022/05/06 04:12:09;;;;;;;30.20;22.75;;;8.90;99.90;;;;;;5106740;28;20444;-74
2022/05/06 04:14:35;;;;;;;29.88;22.73;;;8.80;99.90;;;;;;5111712;28;20059;-73
2022/05/06 04:17:03;;;;;;;29.92;24.33;;;8.80;99.90;;;;;;5105201;28;20100;-71
2022/05/06 04:19:29;;;;;;;29.77;24.45;;;8.80;99.90;;;;;;5112233;28;20085;-74
2022/05/06 04:24:40;;;;;;;30.42;24.70;;;8.90;99.90;;;;;;5099497;28;20051;-72
2022/05/06 04:27:06;;;;;;;27.00;23.92;;;8.90;99.90;;;;;;5093123;28;20047;-74
2022/05/06 04:29:32;;;;;;;28.80;23.30;;;8.90;99.90;;;;;;5103227;28;20047;-72
2022/05/06 04:31:58;;;;;;;28.80;24.13;;;9.00;99.90;;;;;;5113368;28;20429;-73
2022/05/06 04:34:23;;;;;;;29.85;24.02;;;9.00;99.90;;;;;;5101392;28;20043;-76
2022/05/06 04:36:49;;;;;;;28.85;23.27;;;9.10;99.90;;;;;;5112282;28;20479;-73
2022/05/06 04:39:16;;;;;;;28.40;24.02;;;9.10;99.90;;;;;;5108415;28;20460;-71
2022/05/06 04:41:43;;;;;;;28.33;23.42;;;9.10;99.90;;;;;;5098051;28;20073;-72
2022/05/06 04:44:09;;;;;;;30.27;23.85;;;9.20;99.90;;;;;;5112822;28;20563;-71
2022/05/06 04:46:34;;;;;;;27.33;22.98;;;9.30;99.90;;;;;;5113324;28;20346;-73
2022/05/06 04:49:00;;;;;;;28.70;22.00;;;9.30;99.90;;;;;;5111737;28;20063;-73
2022/05/06 04:51:26;;;;;;;26.83;22.33;;;9.40;99.90;;;;;;5106471;28;20048;-73
2022/05/06 04:53:54;;;;;;;26.33;21.65;;;9.40;99.90;;;;;;5072767;28;20545;-73
2022/05/06 04:56:23;;;;;;;28.50;22.75;;;9.50;99.90;;;;;;5090361;28;20081;-74
2022/05/06 04:58:49;;;;;;;28.52;22.80;;;9.60;99.90;;;;;;5089590;28;20048;-73
2022/05/06 05:01:15;;;;;;;27.88;23.33;;;9.60;99.90;;;;;;5107798;28;20036;-72
2022/05/06 05:03:40;;;;;;;30.02;23.70;;;9.60;99.90;;;;;;5104918;28;20048;-76
2022/05/06 05:06:07;;;;;;;27.67;23.90;;;9.70;99.90;;;;;;5088135;28;20055;-72
2022/05/06 05:08:33;;;;;;;29.90;26.23;;;9.70;99.90;;;;;;5091261;28;20105;-72
2022/05/06 05:11:02;;;;;;;30.05;25.20;;;9.80;99.90;;;;;;5089693;28;20405;-74
2022/05/06 05:13:34;;;;;;;31.30;26.73;;;9.80;99.90;;;;;;5106680;28;20086;-72
2022/05/06 05:16:00;;;;;;;30.15;25.25;;;9.90;99.90;;;;;;5104330;28;20036;-72
2022/05/06 05:18:26;;;;;;;35.58;27.55;;;10.00;99.90;;;;;;5088352;28;20051;-72
2022/05/06 05:20:52;;;;;;;34.22;27.40;;;10.10;99.90;;;;;;5099850;28;20040;-74
2022/05/06 05:23:17;;;;;;;35.58;28.60;;;10.10;99.90;;;;;;5111294;28;20051;-74
2022/05/06 05:25:43;;;;;;;31.00;27.17;;;10.20;99.90;;;;;;5108944;28;20067;-71
2022/05/06 05:28:09;;;;;;;31.90;26.95;;;10.10;99.90;;;;;;5090481;28;20047;-72
2022/05/06 05:30:35;;;;;;;33.20;26.58;;;10.20;99.90;;;;;;5088817;28;20040;-75
2022/05/06 05:33:01;;;;;;;31.55;28.15;;;10.30;99.90;;;;;;5091764;28;20036;-72
2022/05/06 05:35:29;;;;;;;30.25;26.77;;;10.30;99.90;;;;;;5088946;28;20144;-73
2022/05/06 05:37:54;;;;;;;34.08;27.92;;;10.40;99.90;;;;;;5104455;28;20051;-73
2022/05/06 05:40:20;;;;;;;33.17;27.98;;;10.50;99.90;;;;;;5080622;28;20044;-74
2022/05/06 05:42:46;;;;;;;34.10;25.98;;;10.60;99.90;;;;;;5071485;28;20048;-72
2022/05/06 05:50:40;;;;;;;32.15;27.83;;;10.90;99.90;;;;;;5108287;28;20051;-73
2022/05/06 05:53:06;;;;;;;34.85;28.42;;;11.00;99.90;;;;;;5087730;28;20135;-73
2022/05/06 05:55:32;;;;;;;37.47;28.55;;;11.10;99.90;;;;;;5084961;28;20093;-72
2022/05/06 05:57:57;;;;;;;32.70;28.20;;;11.20;99.90;;;;;;5087611;28;20032;-74
2022/05/06 06:00:23;;;;;;;35.65;28.92;;;11.20;99.90;;;;;;5098271;28;20040;-72
2022/05/06 06:02:49;;;;;;;35.03;28.02;;;11.30;99.90;;;;;;5109902;28;20047;-72
2022/05/06 06:05:15;;;;;;;35.38;28.63;;;11.30;99.90;;;;;;5109081;28;20039;-73
2022/05/06 06:07:41;;;;;;;40.03;27.80;;;11.30;99.90;;;;;;5109283;28;20456;-72
2022/05/06 06:10:10;;;;;;;38.80;29.70;;;11.30;99.90;;;;;;5103968;28;20051;-71
2022/05/06 06:12:35;;;;;;;37.72;28.92;;;11.40;99.90;;;;;;5089271;28;20048;-71
2022/05/06 06:15:02;;;;;;;34.58;28.30;;;11.40;99.90;;;;;;5102076;28;20047;-71
2022/05/06 06:17:28;;;;;;;39.40;28.73;;;11.40;99.90;;;;;;5106920;28;20471;-72
2022/05/06 06:19:54;;;;;;;41.70;29.48;;;11.40;99.90;;;;;;5109923;28;20042;-73
2022/05/06 06:22:20;;;;;;;39.17;30.58;;;11.50;99.90;;;;;;5111563;28;20043;-73
2022/05/06 06:24:46;;;;;;;36.90;27.70;;;11.60;99.90;;;;;;5095819;28;20043;-75
2022/05/06 06:27:11;;;;;;;35.22;28.23;;;11.70;99.90;;;;;;5086535;28;20104;-72
2022/05/06 06:29:37;;;;;;;32.88;27.60;;;11.70;99.90;;;;;;5110582;28;20036;-71
2022/05/06 06:32:03;;;;;;;34.58;28.02;;;11.80;99.90;;;;;;5095736;28;20032;-71
2022/05/06 06:34:29;;;;;;;34.30;27.40;;;11.90;99.90;;;;;;5104335;28;20051;-71
2022/05/06 06:36:55;;;;;;;31.95;27.42;;;12.00;99.90;;;;;;5086000;28;20047;-70
2022/05/06 06:39:21;;;;;;;36.25;28.92;;;12.00;99.90;;;;;;5087932;28;20036;-72
2022/05/06 06:41:46;;;;;;;35.20;28.02;;;12.10;99.90;;;;;;5087897;28;20400;-72
2022/05/06 06:44:12;;;;;;;34.75;27.30;;;12.20;99.90;;;;;;5093524;28;20398;-73
2022/05/06 06:46:38;;;;;;;37.83;28.30;;;12.30;99.90;;;;;;5101886;28;20079;-74
2022/05/06 06:49:05;;;;;;;34.67;28.35;;;12.50;99.90;;;;;;5076214;28;20055;-71
2022/05/06 06:51:31;;;;;;;34.97;28.35;;;12.60;99.90;;;;;;5108790;28;20388;-72
2022/05/06 06:53:58;;;;;;;37.87;29.57;;;12.60;99.90;;;;;;5107433;28;20114;-72
2022/05/06 06:56:23;;;;;;;32.78;28.13;;;12.70;99.90;;;;;;5108234;28;20289;-72
2022/05/06 06:58:49;;;;;;;37.22;29.02;;;12.80;99.90;;;;;;5102445;28;20044;-72
2022/05/06 07:01:15;;;;;;;36.22;28.80;;;12.90;99.90;;;;;;5087071;28;20494;-72
2022/05/06 07:03:41;;;;;;;35.10;28.98;;;13.00;99.90;;;;;;5086262;28;20380;-71
2022/05/06 07:11:54;;;;;;;36.90;29.70;;;13.20;99.90;;;;;;5084484;28;20040;-72
2022/05/06 07:14:21;;;;;;;38.50;30.25;;;13.30;99.90;;;;;;5086371;28;20048;-71
2022/05/06 07:16:51;;;;;;;38.83;28.75;;;13.40;99.90;;;;;;5104956;28;20039;-72
2022/05/06 07:19:17;;;;;;;39.83;29.23;;;13.50;99.90;;;;;;5096767;28;20044;-71
2022/05/06 07:21:43;;;;;;;39.72;29.65;;;13.60;99.90;;;;;;5068836;28;20051;-72
2022/05/06 07:24:09;;;;;;;41.30;31.00;;;13.70;99.90;;;;;;5066835;28;20052;-77
2022/05/06 07:26:35;;;;;;;40.00;30.50;;;13.80;99.90;;;;;;5095996;28;20044;-74
2022/05/06 07:29:01;;;;;;;37.08;30.65;;;13.90;99.90;;;;;;5092244;28;20071;-76
2022/05/06 07:31:27;;;;;;;43.35;31.73;;;14.00;99.90;;;;;;5074389;28;20217;-77
2022/05/06 07:33:54;;;;;;;41.83;31.67;;;14.10;99.90;;;;;;5077222;28;20044;-77
2022/05/06 07:36:23;;;;;;;44.38;30.80;;;14.20;99.90;;;;;;5086107;28;20046;-75
2022/05/06 07:38:50;;;;;;;39.47;29.00;;;14.20;99.90;;;;;;5100972;28;20047;-77
2022/05/06 07:41:16;;;;;;;38.10;29.20;;;14.40;99.90;;;;;;5087898;28;20062;-76
2022/05/06 07:43:42;;;;;;;37.40;29.30;;;14.50;99.90;;;;;;5092261;28;20059;-75
2022/05/06 07:46:11;;;;;;;42.60;31.38;;;14.50;99.90;;;;;;5087293;28;20036;-78
2022/05/06 07:48:37;;;;;;;43.15;30.92;;;14.60;99.90;;;;;;5095625;28;20048;-77
2022/05/06 07:51:07;;;;;;;39.92;29.77;;;14.70;99.90;;;;;;5107243;28;20082;-76
2022/05/06 07:53:33;;;;;;;43.13;31.73;;;14.80;99.90;;;;;;5104411;28;20043;-75
2022/05/06 07:55:59;;;;;;;40.80;29.55;;;14.80;99.90;;;;;;5101094;28;20035;-75
2022/05/06 07:58:25;;;;;;;40.22;29.70;;;14.90;99.90;;;;;;5086717;28;20036;-74
2022/05/06 08:00:51;;;;;;;39.70;30.65;;;14.90;99.90;;;;;;5092381;28;20096;-77
2022/05/06 08:06:02;;;;;;;37.47;27.38;;;15.00;99.90;;;;;;5087254;28;20051;-77
2022/05/06 08:08:30;;;;;;;33.90;26.00;;;15.10;99.90;;;;;;5098238;28;20104;-77
2022/05/06 08:10:56;;;;;;;30.50;23.98;;;15.10;99.90;;;;;;5098178;28;20312;-78
2022/05/06 08:13:22;;;;;;;29.92;24.20;;;15.20;99.90;;;;;;5106229;28;20039;-75
2022/05/06 08:15:54;;;;;;;32.88;24.25;;;15.20;99.90;;;;;;5099611;28;20124;-76
2022/05/06 08:18:20;;;;;;;28.90;22.85;;;15.30;99.90;;;;;;5091591;28;20089;-76
2022/05/06 08:20:46;;;;;;;28.65;22.23;;;15.40;99.90;;;;;;5088894;28;20039;-77
2022/05/06 08:23:12;;;;;;;30.33;22.75;;;15.30;99.90;;;;;;5103000;28;20071;-74
2022/05/06 08:25:38;;;;;;;29.45;21.38;;;15.40;99.90;;;;;;5102607;28;20136;-76
2022/05/06 08:28:04;;;;;;;26.23;22.42;;;15.40;99.90;;;;;;5081378;28;20047;-75
2022/05/06 08:30:30;;;;;;;26.20;21.95;;;15.50;99.90;;;;;;5085509;28;20494;-78
2022/05/06 08:32:56;;;;;;;33.40;24.40;;;15.50;99.90;;;;;;5108692;28;20121;-74
2022/05/06 08:35:22;;;;;;;32.97;25.63;;;15.50;99.90;;;;;;5094508;28;20510;-76
2022/05/06 08:37:48;;;;;;;34.03;26.95;;;15.60;99.90;;;;;;5092123;28;20036;-74
2022/05/06 08:40:22;;;;;;;35.10;27.35;;;15.50;99.90;;;;;;5095389;28;20044;-76
2022/05/06 08:42:49;;;;;;;35.22;27.10;;;15.60;99.90;;;;;;5090429;28;20039;-76
2022/05/06 08:50:54;;;;;;;26.58;21.98;;;15.60;99.90;;;;;;5089854;28;20055;-74
2022/05/06 08:53:26;;;;;;;26.58;22.90;;;15.60;99.90;;;;;;5096218;28;20032;-78
2022/05/06 08:55:55;;;;;;;24.35;19.98;;;15.60;99.90;;;;;;5099918;28;20054;-79
2022/05/06 08:58:24;;;;;;;26.45;21.48;;;15.70;99.90;;;;;;5112681;28;20086;-75
2022/05/06 09:00:51;;;;;;;29.08;22.63;;;15.70;99.90;;;;;;5111809;28;20128;-76
2022/05/06 09:03:17;;;;;;;25.50;22.48;;;15.70;99.90;;;;;;5104934;28;20068;-76
2022/05/06 09:05:55;;;;;;;27.25;23.10;;;15.80;99.90;;;;;;5110704;28;20043;-75
2022/05/06 09:08:21;;;;;;;26.77;22.45;;;15.90;99.90;;;;;;5107130;28;20056;-76
2022/05/06 09:11:04;;;;;;;28.35;22.88;;;15.90;99.90;;;;;;5096225;28;20054;-74
2022/05/06 09:13:30;;;;;;;30.60;23.50;;;15.90;99.90;;;;;;5095586;28;20132;-78
2022/05/06 09:19:16;;;;;;;24.35;20.55;;;16.10;99.90;;;;;;5071606;28;20048;-79
2022/05/06 09:21:59;;;;;;;25.55;19.83;;;16.20;99.90;;;;;;5091019;28;20052;-79
2022/05/06 09:24:28;;;;;;;22.55;19.20;;;16.30;99.90;;;;;;5088421;28;20515;-78
2022/05/06 09:27:07;;;;;;;28.80;19.83;;;16.30;99.90;;;;;;5092367;28;20044;-81
2022/05/06 09:29:40;;;;;;;22.30;19.75;;;16.40;99.90;;;;;;5096297;28;20042;-80
2022/05/06 09:32:25;;;;;;;23.65;19.10;;;16.40;99.90;;;;;;5090068;28;20043;-80
2022/05/06 09:34:56;;;;;;;21.75;17.80;;;16.50;99.90;;;;;;5088780;28;20402;-80
2022/05/06 09:37:37;;;;;;;22.48;18.75;;;16.50;99.90;;;;;;5068066;28;20559;-80
2022/05/06 09:40:16;;;;;;;22.08;18.10;;;16.60;99.90;;;;;;5090101;28;20036;-79
2022/05/06 09:42:59;;;;;;;21.17;17.27;;;16.70;99.90;;;;;;5105290;28;20040;-80
2022/05/06 09:45:33;;;;;;;18.30;15.88;;;16.80;99.90;;;;;;5090919;28;20063;-81
2022/05/06 09:48:00;;;;;;;20.08;16.80;;;16.90;99.90;;;;;;5090951;28;20079;-78
2022/05/06 09:50:38;;;;;;;;;;;17.00;99.90;;;;;;5089542;28;20135;-80
2022/05/06 09:53:07;;;;;;;20.73;17.52;;;17.00;99.90;;;;;;5089965;28;20011;-84
2022/05/06 09:55:37;;;;;;;17.73;14.68;;;17.10;99.90;;;;;;5100242;28;20043;-76
2022/05/06 09:58:03;;;;;;;19.85;13.07;;;17.20;99.90;;;;;;5110164;28;20046;-79
2022/05/06 10:00:30;;;;;;;15.57;12.30;;;17.30;99.90;;;;;;5086722;28;20054;-77
2022/05/06 10:02:57;;;;;;;16.92;14.23;;;17.40;99.90;;;;;;5093027;28;20107;-73
2022/05/06 10:05:28;;;;;;;18.17;14.60;;;17.40;99.90;;;;;;5084067;28;20086;-74
2022/05/06 10:07:58;;;;;;;16.67;14.30;;;17.50;99.90;;;;;;5093763;28;20119;-75
2022/05/06 10:10:29;;;;;;;17.83;14.70;;;17.50;99.90;;;;;;5101265;28;20051;-75
2022/05/06 10:13:01;;;;;;;16.73;11.50;;;17.60;99.90;;;;;;5087901;28;20089;-75
2022/05/06 10:15:30;;;;;;;13.40;11.00;;;17.70;99.90;;;;;;5102675;28;20052;-80
2022/05/06 10:17:58;;;;;;;13.90;10.70;;;17.80;99.90;;;;;;5086328;28;20113;-73
2022/05/06 10:20:36;;;;;;;14.07;11.95;;;17.80;99.90;;;;;;5093589;28;20052;-76
2022/05/06 10:23:11;;;;;;;13.60;10.60;;;18.00;99.90;;;;;;5090975;28;20094;-74
2022/05/06 10:25:40;;;;;;;16.77;11.18;;;18.00;99.90;;;;;;5090307;28;20039;-73
2022/05/06 10:34:18;;;;;;;13.57;9.20;;;18.10;99.90;;;;;;5056659;28;20747;-75
2022/05/06 10:36:54;;;;;;;14.35;10.02;;;18.20;99.90;;;;;;5109206;28;20093;-75
2022/05/06 10:39:23;;;;;;;11.40;8.80;;;18.30;99.90;;;;;;5090986;28;20048;-75
2022/05/06 10:42:01;;;;;;;14.05;10.70;;;18.40;99.90;;;;;;5087720;28;20036;-74
2022/05/06 10:44:47;;;;;;;15.00;11.93;;;18.50;99.90;;;;;;5099457;28;20047;-71
2022/05/06 10:47:13;;;;;;;17.45;13.93;;;18.50;99.90;;;;;;5100450;28;20078;-72
2022/05/06 10:49:38;;;;;;;16.00;12.05;;;18.40;99.90;;;;;;5102583;27;20113;-73
2022/05/06 10:52:20;;;;;;;15.32;11.65;;;18.40;99.90;;;;;;5109938;28;20495;-76
2022/05/06 10:54:50;;;;;;;18.80;12.48;;;18.50;99.90;;;;;;5106108;28;20707;-75
2022/05/06 10:57:17;;;;;;;16.17;11.85;;;18.60;99.90;;;;;;5091407;28;20223;-73
2022/05/06 10:59:51;;;;;;;16.90;11.85;;;18.70;99.90;;;;;;5087143;28;20589;-73
2022/05/06 11:02:22;;;;;;;11.45;8.82;;;18.70;99.90;;;;;;5088299;28;20097;-74
2022/05/06 11:04:51;;;;;;;11.50;8.98;;;18.70;99.90;;;;;;5089719;28;20050;-74
2022/05/06 11:07:18;;;;;;;13.75;10.07;;;18.90;99.90;;;;;;5106082;28;20104;-73
2022/05/06 11:09:44;;;;;;;11.60;9.70;;;19.00;99.90;;;;;;5084813;28;20105;-74
2022/05/06 11:12:10;;;;;;;13.07;8.20;;;19.10;99.90;;;;;;5106444;28;20052;-75
2022/05/06 11:14:39;;;;;;;11.75;7.93;;;19.20;99.90;;;;;;5109091;28;20324;-76
2022/05/06 11:17:18;;;;;;;10.48;8.15;;;19.30;99.90;;;;;;5108209;28;20492;-73
2022/05/06 11:19:44;;;;;;;11.05;8.32;;;19.30;99.90;;;;;;5091372;28;20050;-73
2022/05/06 11:22:10;;;;;;;9.98;8.63;;;19.40;99.90;;;;;;5094906;28;20052;-72
2022/05/06 11:24:36;;;;;;;9.15;7.53;;;19.40;99.90;;;;;;5087293;28;20055;-75
2022/05/06 11:27:21;;;;;;;8.98;7.43;;;19.40;99.90;;;;;;5102359;28;20503;-75
2022/05/06 11:29:55;;;;;;;8.32;7.18;;;19.40;99.90;;;;;;5097995;28;20051;-75
2022/05/06 11:32:28;;;;;;;7.78;6.53;;;19.40;99.90;;;;;;5088267;28;20140;-76
2022/05/06 11:35:18;;;;;;;7.93;5.88;;;19.60;99.90;;;;;;5103736;28;20062;-76
2022/05/06 11:37:44;;;;;;;7.05;6.05;;;19.70;99.90;;;;;;5093953;28;20108;-85
2022/05/06 11:42:57;;;;;;;8.25;5.35;;;19.90;99.90;;;;;;5101877;28;20048;-79
2022/05/06 11:48:13;;;;;;;4.82;4.20;;;20.00;99.90;;;;;;5090205;28;20040;-80
2022/05/06 11:50:41;;;;;;;5.15;4.05;;;20.10;97.80;;;;;;5077488;28;20086;-80
2022/05/06 11:53:09;;;;;;;3.95;2.90;;;20.10;97.20;;;;;;5074985;28;20381;-81
2022/05/06 11:55:36;;;;;;;6.78;4.60;;;20.20;97.50;;;;;;5083042;28;20481;-81
2022/05/06 11:58:04;;;;;;;;;;;20.10;94.40;;;;;;5074029;28;20530;-81
2022/05/06 12:00:30;;;;;;;4.93;3.95;;;20.10;96.30;;;;;;5085641;28;19927;-80
2022/05/06 12:03:04;;;;;;;7.47;4.03;;;20.10;97.70;;;;;;5089717;28;20089;-80
2022/05/06 12:05:31;;;;;;;4.00;3.13;;;20.30;97.60;;;;;;5088127;28;20445;-78
2022/05/06 12:08:11;;;;;;;3.83;3.50;;;20.30;94.20;;;;;;5082560;28;20067;-80
2022/05/06 12:10:38;;;;;;;3.63;3.30;;;20.40;94.50;;;;;;5090632;28;20082;-79
2022/05/06 12:13:08;;;;;;;5.22;4.43;;;20.50;94.10;;;;;;5108478;28;20027;-78
2022/05/06 12:15:39;;;;;;;6.40;4.10;;;20.50;92.60;;;;;;5084474;28;20044;-78
2022/05/06 12:18:18;;;;;;;4.80;3.50;;;20.60;92.90;;;;;;5088456;28;20542;-77
2022/05/06 12:20:46;;;;;;;4.05;3.10;;;20.70;91.20;;;;;;5084934;28;20036;-78
2022/05/06 12:23:26;;;;;;;3.97;3.40;;;20.70;87.10;;;;;;5103562;28;20067;-83
2022/05/06 12:26:12;;;;;;;6.45;3.20;;;20.70;82.20;;;;;;5104894;28;20054;-86
2022/05/06 12:28:47;;;;;;;3.88;3.58;;;20.70;87.80;;;;;;5092206;28;20083;-77
2022/05/06 12:31:26;;;;;;;5.05;3.95;;;20.70;89.40;;;;;;5091620;28;20032;-78
2022/05/06 12:34:00;;;;;;;3.08;2.78;;;20.70;87.80;;;;;;5090321;28;20098;-78
2022/05/06 12:36:26;;;;;;;3.47;3.13;;;20.70;85.90;;;;;;5088910;28;20043;-82
2022/05/06 12:38:51;;;;;;;4.35;3.50;;;20.70;88.10;;;;;;5113447;28;20035;-77
2022/05/06 12:41:26;;;;;;;3.25;2.95;;;20.80;86.60;;;;;;5104509;28;20403;-77
2022/05/06 12:43:58;;;;;;;3.30;3.00;;;20.80;83.20;;;;;;5089942;28;20044;-79
2022/05/06 12:46:36;;;;;;;6.95;4.60;;;20.80;87.00;;;;;;5101667;28;20075;-77
2022/05/06 12:51:49;;;;;;;4.30;3.75;;;21.00;89.10;;;;;;5098277;28;20055;-76
2022/05/06 12:54:15;;;;;;;4.35;3.75;;;21.20;90.50;;;;;;5084927;28;20093;-77
2022/05/06 12:56:41;;;;;;;4.68;3.67;;;21.30;87.20;;;;;;5123340;27;20134;-78
2022/05/06 12:59:07;;;;;;;5.70;3.17;;;21.30;76.50;;;;;;5093600;28;20282;-76
2022/05/06 13:01:34;;;;;;;4.00;2.97;;;21.30;76.80;;;;;;5103579;28;20043;-77
2022/05/06 13:04:00;;;;;;;4.13;2.93;;;21.30;70.80;;;;;;5111346;28;20100;-79
2022/05/06 13:06:25;;;;;;;6.35;3.28;;;21.30;71.50;;;;;;5101771;28;20130;-81
2022/05/06 13:08:51;;;;;;;4.90;3.92;;;21.30;67.40;;;;;;5101246;28;20221;-79
2022/05/06 13:11:17;;;;;;;3.47;3.15;;;21.30;67.60;;;;;;5105754;28;20044;-78
2022/05/06 13:13:46;;;;;;;4.70;3.00;;;21.40;70.10;;;;;;5088415;28;20041;-88
2022/05/06 13:16:14;;;;;;;6.78;2.88;;;21.30;67.70;;;;;;5090114;28;20048;-82
2022/05/06 13:18:41;;;;;;;3.33;2.30;;;21.30;63.30;;;;;;5100692;28;20036;-82
2022/05/06 13:21:22;;;;;;;4.85;2.80;;;21.20;60.50;;;;;;5094941;28;20039;-85
2022/05/06 13:23:48;;;;;;;3.08;2.17;;;21.10;56.70;;;;;;5085824;28;20390;-79
2022/05/06 13:26:14;;;;;;;4.20;2.22;;;21.10;55.60;;;;;;5087712;28;20044;-78
2022/05/06 13:28:39;;;;;;;1.95;1.73;;;21.10;56.80;;;;;;5093055;28;20067;-79
2022/05/06 13:31:05;;;;;;;2.00;1.80;;;21.10;56.50;;;;;;5092100;28;20040;-77